createdAt,value
2022-07-28T00:01:00.984Z,15.34
2022-07-28T00:03:28.868Z,15.58
2022-07-28T00:05:56.803Z,15.74
2022-07-28T00:08:24.592Z,15.86
2022-07-28T00:10:52.486Z,15.93
2022-07-28T00:13:20.299Z,15.98
2022-07-28T00:15:48.301Z,16.03
2022-07-28T00:18:16.322Z,16.07
2022-07-28T00:20:44.099Z,16.07
2022-07-28T00:23:12.030Z,15.79
2022-07-28T00:25:39.908Z,15.22
2022-07-28T00:28:07.719Z,14.81
2022-07-28T00:30:35.517Z,14.98
2022-07-28T00:33:03.473Z,15.21
2022-07-28T00:35:32.640Z,15.38
2022-07-28T00:38:01.146Z,15.48
2022-07-28T00:40:48.102Z,15.56
2022-07-28T00:43:16.591Z,15.62
2022-07-28T00:45:44.555Z,15.67
2022-07-28T00:48:12.673Z,15.72
2022-07-28T00:50:41.152Z,15.74
2022-07-28T00:53:08.984Z,15.75
2022-07-28T00:56:02.755Z,15.75
2022-07-28T00:58:27.962Z,15.76
2022-07-28T01:00:56.380Z,15.77
2022-07-28T01:03:24.812Z,15.78
2022-07-28T01:05:58.241Z,15.79
2022-07-28T01:08:44.817Z,15.79
2022-07-28T01:11:31.235Z,15.78
2022-07-28T01:14:11.270Z,15.75
2022-07-28T01:16:57.943Z,15.72
2022-07-28T01:19:25.659Z,15.69
2022-07-28T01:21:54.164Z,15.66
2022-07-28T01:24:26.799Z,15.64
2022-07-28T01:26:59.207Z,15.61
2022-07-28T01:29:51.689Z,15.57
2022-07-28T01:32:22.080Z,15.54
2022-07-28T01:35:04.041Z,15.52
2022-07-28T01:37:33.038Z,15.49
2022-07-28T01:40:04.381Z,15.46
2022-07-28T01:42:35.812Z,15.42
2022-07-28T01:45:04.594Z,15.39
2022-07-28T01:47:34.075Z,15.36
2022-07-28T01:50:04.021Z,15.33
2022-07-28T01:52:32.436Z,15.29
2022-07-28T01:55:02.414Z,15.26
2022-07-28T01:57:31.752Z,15.23
2022-07-28T02:00:00.554Z,15.19
2022-07-28T02:02:29.780Z,15.15
2022-07-28T02:04:59.314Z,15.10
2022-07-28T02:07:27.189Z,15.05
2022-07-28T02:09:57.531Z,14.99
2022-07-28T02:12:26.657Z,14.98
2022-07-28T02:14:55.523Z,14.96
2022-07-28T02:17:28.226Z,14.93
2022-07-28T02:19:57.100Z,14.90
2022-07-28T02:22:27.079Z,14.86
2022-07-28T02:24:56.256Z,14.82
2022-07-28T02:27:38.622Z,14.78
2022-07-28T02:30:17.686Z,14.74
2022-07-28T02:32:50.313Z,14.71
2022-07-28T02:35:49.123Z,14.68
2022-07-28T02:38:26.881Z,14.66
2022-07-28T02:40:57.536Z,14.65
2022-07-28T02:43:49.003Z,14.64
2022-07-28T02:46:20.429Z,14.61
2022-07-28T02:48:52.944Z,14.59
2022-07-28T02:51:23.906Z,14.57
2022-07-28T02:53:52.260Z,14.54
2022-07-28T02:56:20.490Z,14.54
2022-07-28T02:58:48.559Z,14.53
2022-07-28T03:01:20.079Z,14.52
2022-07-28T03:03:49.419Z,14.49
2022-07-28T03:06:19.788Z,14.47
2022-07-28T03:08:57.541Z,14.46
2022-07-28T03:11:25.492Z,14.47
2022-07-28T03:13:53.773Z,14.49
2022-07-28T03:16:22.941Z,14.52
2022-07-28T03:18:51.044Z,14.55
2022-07-28T03:21:18.840Z,14.58
2022-07-28T03:23:48.371Z,14.63
2022-07-28T03:26:18.181Z,14.67
2022-07-28T03:28:46.790Z,14.69
2022-07-28T03:31:15.502Z,14.74
2022-07-28T03:33:43.500Z,14.77
2022-07-28T03:36:14.756Z,14.80
2022-07-28T03:38:46.952Z,14.88
2022-07-28T03:41:15.266Z,14.96
2022-07-28T03:43:43.610Z,15.04
2022-07-28T03:46:13.602Z,15.12
2022-07-28T03:48:41.580Z,15.20
2022-07-28T03:51:09.409Z,15.26
2022-07-28T03:53:37.835Z,15.33
2022-07-28T03:56:06.504Z,15.42
2022-07-28T03:58:34.415Z,15.51
2022-07-28T04:01:02.431Z,15.60
2022-07-28T04:03:43.251Z,15.72
2022-07-28T04:06:13.124Z,15.83
2022-07-28T04:08:42.909Z,15.97
2022-07-28T04:11:10.858Z,16.08
2022-07-28T04:13:38.841Z,16.16
2022-07-28T04:16:07.402Z,16.25
2022-07-28T04:18:35.767Z,16.37
2022-07-28T04:21:04.154Z,16.50
2022-07-28T04:23:33.088Z,16.64
2022-07-28T04:26:00.847Z,16.77
2022-07-28T04:28:28.646Z,16.93
2022-07-28T04:30:56.478Z,17.07
2022-07-28T04:33:24.953Z,17.22
2022-07-28T04:35:53.307Z,17.36
2022-07-28T04:38:21.133Z,17.51
2022-07-28T04:40:49.289Z,17.66
2022-07-28T04:43:17.246Z,17.80
2022-07-28T04:45:53.757Z,17.94
2022-07-28T04:48:24.042Z,18.08
2022-07-28T04:50:53.253Z,18.12
2022-07-28T04:53:22.507Z,17.72
2022-07-28T04:55:53.505Z,17.30
2022-07-28T04:58:23.733Z,17.03
2022-07-28T05:00:52.053Z,16.82
2022-07-28T05:03:20.779Z,16.78
2022-07-28T05:05:54.923Z,17.25
2022-07-28T05:08:25.674Z,17.77
2022-07-28T05:10:55.762Z,18.17
2022-07-28T05:13:24.088Z,18.52
2022-07-28T05:15:51.850Z,18.65
2022-07-28T05:18:19.599Z,18.37
2022-07-28T05:20:47.399Z,18.10
2022-07-28T05:23:15.826Z,17.91
2022-07-28T05:25:43.607Z,17.80
2022-07-28T05:28:11.583Z,17.73
2022-07-28T05:30:39.732Z,17.69
2022-07-28T05:33:07.760Z,17.67
2022-07-28T05:35:35.763Z,17.67
2022-07-28T05:38:06.391Z,17.68
2022-07-28T05:40:38.378Z,17.71
2022-07-28T05:43:06.799Z,17.78
2022-07-28T05:45:34.936Z,17.85
2022-07-28T05:48:02.753Z,17.93
2022-07-28T05:50:30.653Z,18.02
2022-07-28T05:52:58.400Z,18.33
2022-07-28T05:55:26.394Z,19.09
2022-07-28T05:57:54.486Z,19.66
2022-07-28T06:00:23.181Z,19.64
2022-07-28T06:02:51.562Z,19.54
2022-07-28T06:05:21.313Z,19.50
2022-07-28T06:07:50.937Z,19.52
2022-07-28T06:10:22.686Z,19.57
2022-07-28T06:12:55.472Z,19.61
2022-07-28T06:15:28.129Z,19.70
2022-07-28T06:17:56.134Z,19.83
2022-07-28T06:20:25.119Z,19.97
2022-07-28T06:22:55.116Z,20.11
2022-07-28T06:25:25.814Z,20.27
2022-07-28T06:27:56.211Z,20.40
2022-07-28T06:30:24.401Z,20.51
2022-07-28T06:32:52.373Z,20.64
2022-07-28T06:35:20.470Z,20.76
2022-07-28T06:37:50.933Z,20.87
2022-07-28T06:40:20.146Z,21.01
2022-07-28T06:42:47.860Z,21.14
2022-07-28T06:45:20.724Z,21.26
2022-07-28T06:47:53.749Z,21.36
2022-07-28T06:50:26.083Z,21.45
2022-07-28T06:52:56.577Z,21.54
2022-07-28T06:55:24.842Z,21.63
2022-07-28T06:57:53.069Z,21.72
2022-07-28T07:00:20.906Z,21.78
2022-07-28T07:02:49.629Z,21.79
2022-07-28T07:05:17.805Z,21.78
2022-07-28T07:07:45.614Z,21.76
2022-07-28T07:10:13.439Z,21.82
2022-07-28T07:12:41.388Z,21.92
2022-07-28T07:15:10.345Z,22.01
2022-07-28T07:17:38.229Z,22.07
2022-07-28T07:20:06.950Z,22.14
2022-07-28T07:22:35.645Z,22.23
2022-07-28T07:25:13.769Z,22.34
2022-07-28T07:27:41.898Z,22.44
2022-07-28T07:30:10.929Z,22.51
2022-07-28T07:32:38.665Z,22.57
2022-07-28T07:35:07.245Z,22.62
2022-07-28T07:37:35.117Z,22.62
2022-07-28T07:40:05.460Z,22.67
2022-07-28T07:42:33.315Z,22.73
2022-07-28T07:45:01.504Z,22.85
2022-07-28T07:47:29.346Z,22.95
2022-07-28T07:49:57.345Z,23.04
2022-07-28T07:52:25.180Z,23.13
2022-07-28T07:54:53.043Z,23.11
2022-07-28T07:57:20.849Z,23.06
2022-07-28T07:59:49.002Z,23.14
2022-07-28T08:02:17.014Z,23.20
2022-07-28T08:04:45.002Z,23.25
2022-07-28T08:07:15.850Z,23.32
2022-07-28T08:09:43.700Z,23.37
2022-07-28T08:12:11.490Z,23.43
2022-07-28T08:14:39.848Z,23.54
2022-07-28T08:17:09.208Z,23.67
2022-07-28T08:19:37.000Z,23.76
2022-07-28T08:22:05.026Z,23.84
2022-07-28T08:24:34.266Z,23.89
2022-07-28T08:27:03.547Z,23.96
2022-07-28T08:29:31.383Z,24.06
2022-07-28T08:32:01.354Z,24.09
2022-07-28T08:34:33.876Z,24.04
2022-07-28T08:37:03.858Z,24.00
2022-07-28T08:39:33.173Z,24.08
2022-07-28T08:42:19.261Z,24.15
2022-07-28T08:44:50.135Z,24.26
2022-07-28T08:47:18.251Z,24.27
2022-07-28T08:49:48.001Z,24.27
2022-07-28T08:52:16.944Z,24.27
2022-07-28T08:54:45.710Z,24.26
2022-07-28T08:57:18.158Z,24.32
2022-07-28T08:59:47.647Z,24.38
2022-07-28T09:02:16.627Z,24.48
2022-07-28T09:04:46.756Z,24.63
2022-07-28T09:07:15.247Z,24.77
2022-07-28T09:09:43.873Z,24.91
2022-07-28T09:12:11.760Z,25.02
2022-07-28T09:14:39.775Z,25.31
2022-07-28T09:17:07.716Z,26.65
2022-07-28T09:19:37.684Z,29.10
2022-07-28T09:22:06.932Z,31.81
2022-07-28T09:24:39.858Z,34.33
2022-07-28T09:27:09.771Z,36.19
2022-07-28T09:29:39.276Z,37.88
2022-07-28T09:32:08.340Z,39.77
2022-07-28T09:34:44.482Z,41.66
2022-07-28T09:37:27.140Z,43.37
2022-07-28T09:40:00.311Z,45.59
2022-07-28T09:42:45.758Z,47.85
2022-07-28T09:45:22.956Z,50.09
2022-07-28T09:48:11.991Z,51.95
2022-07-28T09:50:41.930Z,53.43
2022-07-28T09:53:23.810Z,54.64
2022-07-28T09:56:00.631Z,56.00
2022-07-28T09:58:30.629Z,57.21
2022-07-28T10:01:05.548Z,58.26
2022-07-28T10:03:36.985Z,59.11
2022-07-28T10:06:08.205Z,59.23
2022-07-28T10:08:47.519Z,58.75
2022-07-28T10:11:17.511Z,58.64
2022-07-28T10:13:58.590Z,58.59
2022-07-28T10:16:28.584Z,58.99
2022-07-28T10:18:57.813Z,59.15
2022-07-28T10:21:27.125Z,59.49
2022-07-28T10:23:57.471Z,59.16
2022-07-28T10:26:30.805Z,58.71
2022-07-28T10:29:00.584Z,58.92
2022-07-28T10:31:40.613Z,59.30
2022-07-28T10:34:15.793Z,59.41
2022-07-28T10:36:44.879Z,58.68
2022-07-28T10:39:19.626Z,58.60
2022-07-28T10:41:47.851Z,58.68
2022-07-28T10:44:19.740Z,58.87
2022-07-28T10:46:47.949Z,58.93
2022-07-28T10:49:15.976Z,58.86
2022-07-28T10:52:06.572Z,59.21
2022-07-28T10:54:42.580Z,59.45
2022-07-28T10:57:11.943Z,59.65
2022-07-28T10:59:45.922Z,59.55
2022-07-28T11:02:53.368Z,59.10
2022-07-28T11:05:40.972Z,57.90
2022-07-28T11:08:15.963Z,57.39
2022-07-28T11:10:52.094Z,56.81
2022-07-28T11:13:33.074Z,55.84
2022-07-28T11:16:22.664Z,53.94
2022-07-28T11:19:28.672Z,51.61
2022-07-28T11:22:22.327Z,49.32
2022-07-28T11:25:19.483Z,46.92
2022-07-28T11:27:52.085Z,44.98
2022-07-28T11:30:27.652Z,44.05
2022-07-28T11:32:55.713Z,43.29
2022-07-28T11:35:28.067Z,42.07
2022-07-28T11:38:02.093Z,40.56
2022-07-28T11:40:46.923Z,39.32
2022-07-28T11:43:26.614Z,38.04
2022-07-28T11:46:10.253Z,36.55
2022-07-28T11:48:42.355Z,35.39
2022-07-28T11:51:11.444Z,34.43
2022-07-28T11:53:50.912Z,33.77
2022-07-28T11:56:37.218Z,33.19
2022-07-28T11:59:06.667Z,32.42
2022-07-28T12:01:36.993Z,31.80
2022-07-28T12:04:15.291Z,31.34
2022-07-28T12:06:49.515Z,31.17
2022-07-28T12:09:25.273Z,31.01
2022-07-28T12:11:55.888Z,30.73
2022-07-28T12:14:24.389Z,30.39
2022-07-28T12:16:53.277Z,30.01
2022-07-28T12:19:22.512Z,29.89
2022-07-28T12:21:55.187Z,29.75
2022-07-28T12:24:32.243Z,29.65
2022-07-28T12:27:15.119Z,29.55
2022-07-28T12:29:43.738Z,29.50
2022-07-28T12:32:13.027Z,29.42
2022-07-28T12:34:42.290Z,29.26
2022-07-28T12:37:10.289Z,29.13
2022-07-28T12:39:43.267Z,29.04
2022-07-28T12:42:13.653Z,29.01
2022-07-28T12:44:43.042Z,28.93
2022-07-28T12:47:12.680Z,28.85
2022-07-28T12:49:42.855Z,28.80
2022-07-28T12:52:23.729Z,28.88
2022-07-28T12:54:55.785Z,28.99
2022-07-28T12:57:49.349Z,28.95
2022-07-28T13:00:21.053Z,28.93
2022-07-28T13:02:50.932Z,28.91
2022-07-28T13:05:30.831Z,28.87
2022-07-28T13:08:02.266Z,28.80
2022-07-28T13:10:31.544Z,28.63
2022-07-28T13:13:08.655Z,28.51
2022-07-28T13:15:36.633Z,28.36
2022-07-28T13:18:05.198Z,28.14
2022-07-28T13:20:47.760Z,27.89
2022-07-28T13:23:16.159Z,27.65
2022-07-28T13:25:44.114Z,27.64
2022-07-28T13:28:27.998Z,27.65
2022-07-28T13:30:55.757Z,27.56
2022-07-28T13:33:23.795Z,27.41
2022-07-28T13:35:53.543Z,27.28
2022-07-28T13:38:21.628Z,27.19
2022-07-28T13:40:49.515Z,27.21
2022-07-28T13:43:18.432Z,27.28
2022-07-28T13:45:48.481Z,27.36
2022-07-28T13:48:16.314Z,27.39
2022-07-28T13:50:44.226Z,27.35
2022-07-28T13:53:31.562Z,27.19
2022-07-28T13:55:59.632Z,26.99
2022-07-28T13:58:28.007Z,26.83
2022-07-28T14:00:58.233Z,26.73
2022-07-28T14:03:27.109Z,26.73
2022-07-28T14:05:55.309Z,26.82
2022-07-28T14:08:25.368Z,26.94
2022-07-28T14:10:56.735Z,27.05
2022-07-28T14:13:28.326Z,27.12
2022-07-28T14:16:02.669Z,27.03
2022-07-28T14:18:34.766Z,26.93
2022-07-28T14:21:04.727Z,26.81
2022-07-28T14:23:32.586Z,26.70
2022-07-28T14:26:25.170Z,26.62
2022-07-28T14:28:48.964Z,26.52
2022-07-28T14:31:18.254Z,26.42
2022-07-28T14:33:52.276Z,26.37
2022-07-28T14:36:22.351Z,26.35
2022-07-28T14:38:54.489Z,26.34
2022-07-28T14:41:23.551Z,26.33
2022-07-28T14:43:51.773Z,26.33
2022-07-28T14:46:21.812Z,26.56
2022-07-28T14:48:50.130Z,27.01
2022-07-28T14:51:18.107Z,27.50
2022-07-28T14:53:51.633Z,27.78
2022-07-28T14:56:19.945Z,28.02
2022-07-28T14:58:47.859Z,28.09
2022-07-28T15:01:15.629Z,27.98
2022-07-28T15:03:43.712Z,27.86
2022-07-28T15:06:11.639Z,27.69
2022-07-28T15:08:39.493Z,27.50
2022-07-28T15:11:08.151Z,27.37
2022-07-28T15:13:36.117Z,27.44
2022-07-28T15:16:04.319Z,27.52
2022-07-28T15:18:32.176Z,27.55
2022-07-28T15:21:00.545Z,27.48
2022-07-28T15:23:28.375Z,27.32
2022-07-28T15:25:56.307Z,27.15
2022-07-28T15:28:24.206Z,26.96
2022-07-28T15:30:52.928Z,26.81
2022-07-28T15:33:21.265Z,26.70
2022-07-28T15:35:59.419Z,26.65
2022-07-28T15:38:29.241Z,26.57
2022-07-28T15:41:00.490Z,26.50
2022-07-28T15:43:29.113Z,26.41
2022-07-28T15:45:57.490Z,26.34
2022-07-28T15:48:25.570Z,26.28
2022-07-28T15:50:53.526Z,26.20
2022-07-28T15:53:23.103Z,26.14
2022-07-28T15:55:51.973Z,26.06
2022-07-28T15:58:21.766Z,25.96
2022-07-28T16:00:50.662Z,25.79
2022-07-28T16:03:18.653Z,25.63
2022-07-28T16:05:49.649Z,25.51
2022-07-28T16:08:18.808Z,25.39
2022-07-28T16:10:53.106Z,25.30
2022-07-28T16:13:36.394Z,25.15
2022-07-28T16:16:11.182Z,24.96
2022-07-28T16:18:42.109Z,24.76
2022-07-28T16:21:10.732Z,24.56
2022-07-28T16:23:38.781Z,24.41
2022-07-28T16:26:09.438Z,24.26
2022-07-28T16:28:37.521Z,24.11
2022-07-28T16:31:05.771Z,24.02
2022-07-28T16:33:34.113Z,23.95
2022-07-28T16:36:02.663Z,23.89
2022-07-28T16:38:30.717Z,23.83
2022-07-28T16:40:58.979Z,23.81
2022-07-28T16:43:26.763Z,23.81
2022-07-28T16:45:54.512Z,23.82
2022-07-28T16:48:22.327Z,23.80
2022-07-28T16:50:50.249Z,23.77
2022-07-28T16:53:18.679Z,23.73
2022-07-28T16:55:48.274Z,23.67
2022-07-28T16:58:18.114Z,23.61
2022-07-28T17:00:45.971Z,23.53
2022-07-28T17:03:14.116Z,23.43
2022-07-28T17:05:42.104Z,23.33
2022-07-28T17:08:10.143Z,23.26
2022-07-28T17:10:38.094Z,23.18
2022-07-28T17:13:06.095Z,23.11
2022-07-28T17:15:34.056Z,23.03
2022-07-28T17:18:02.725Z,22.93
2022-07-28T17:20:30.509Z,22.84
2022-07-28T17:22:58.730Z,22.74
2022-07-28T17:28:14.653Z,22.53
2022-07-28T17:30:42.617Z,22.42
2022-07-28T17:33:10.591Z,22.31
2022-07-28T17:35:40.114Z,22.21
2022-07-28T17:38:09.525Z,22.11
2022-07-28T17:40:38.176Z,22.00
2022-07-28T17:43:06.399Z,21.90
2022-07-28T17:45:34.680Z,21.78
2022-07-28T17:48:02.527Z,21.66
2022-07-28T17:50:30.633Z,21.54
2022-07-28T17:52:58.562Z,21.42
2022-07-28T17:55:57.495Z,21.30
2022-07-28T17:58:29.703Z,21.15
2022-07-28T18:01:11.091Z,21.01
2022-07-28T18:03:58.831Z,20.87
2022-07-28T18:06:34.908Z,20.71
2022-07-28T18:09:12.257Z,20.58
2022-07-28T18:11:57.961Z,20.44
2022-07-28T18:14:28.424Z,20.30
2022-07-28T18:16:56.610Z,20.17
2022-07-28T18:19:25.725Z,20.04
2022-07-28T18:21:54.035Z,19.92
2022-07-28T18:24:22.663Z,19.84
2022-07-28T18:26:52.123Z,19.90
2022-07-28T18:29:21.462Z,20.36
2022-07-28T18:31:52.922Z,20.80
2022-07-28T18:34:23.473Z,21.10
2022-07-28T18:36:53.983Z,21.17
2022-07-28T18:39:22.355Z,20.77
2022-07-28T18:41:50.291Z,20.33
2022-07-28T18:44:19.784Z,19.99
2022-07-28T18:46:48.449Z,19.76
2022-07-28T18:49:16.672Z,19.70
2022-07-28T18:51:45.673Z,19.99
2022-07-28T18:54:18.783Z,20.28
2022-07-28T18:56:50.032Z,20.44
2022-07-28T18:59:17.986Z,20.54
2022-07-28T19:01:45.883Z,20.60
2022-07-28T19:04:14.173Z,20.63
2022-07-28T19:06:42.550Z,20.56
2022-07-28T19:09:10.274Z,20.09
2022-07-28T19:11:42.395Z,19.58
2022-07-28T19:14:15.128Z,19.14
2022-07-28T19:16:43.898Z,18.90
2022-07-28T19:19:13.400Z,19.18
2022-07-28T19:21:43.250Z,19.45
2022-07-28T19:24:16.014Z,19.61
2022-07-28T19:26:46.576Z,19.70
2022-07-28T19:29:14.562Z,19.75
2022-07-28T19:31:42.692Z,19.76
2022-07-28T19:34:10.701Z,19.76
2022-07-28T19:36:41.763Z,19.75
2022-07-28T19:39:12.164Z,19.75
2022-07-28T19:41:40.701Z,19.71
2022-07-28T19:44:08.721Z,19.30
2022-07-28T19:46:39.410Z,18.76
2022-07-28T19:49:09.219Z,18.51
2022-07-28T19:51:38.335Z,18.67
2022-07-28T19:54:06.360Z,18.87
2022-07-28T19:56:34.324Z,18.98
2022-07-28T19:59:02.722Z,19.05
2022-07-28T20:01:31.234Z,19.13
2022-07-28T20:04:03.132Z,19.19
2022-07-28T20:06:33.403Z,19.20
2022-07-28T20:09:02.127Z,19.18
2022-07-28T20:11:31.442Z,18.84
2022-07-28T20:14:00.081Z,18.22
2022-07-28T20:16:28.014Z,17.75
2022-07-28T20:18:57.147Z,17.52
2022-07-28T20:21:26.475Z,17.70
2022-07-28T20:23:55.630Z,17.92
2022-07-28T20:26:26.472Z,18.01
2022-07-28T20:28:56.383Z,17.85
2022-07-28T20:31:24.675Z,17.39
2022-07-28T20:33:53.166Z,17.02
2022-07-28T20:36:23.851Z,16.85
2022-07-28T20:38:56.280Z,17.06
2022-07-28T20:41:24.453Z,17.22
2022-07-28T20:44:18.283Z,17.36
2022-07-28T20:46:40.400Z,17.49
2022-07-28T20:49:08.863Z,17.59
2022-07-28T20:51:36.719Z,17.66
2022-07-28T20:54:04.467Z,17.74
2022-07-28T20:56:32.329Z,17.80
2022-07-28T20:59:06.510Z,17.83
2022-07-28T21:01:34.852Z,17.86
2022-07-28T21:04:03.053Z,17.88
2022-07-28T21:06:31.822Z,17.89
2022-07-28T21:09:01.968Z,17.89
2022-07-28T21:11:35.530Z,17.88
2022-07-28T21:14:04.591Z,17.77
2022-07-28T21:16:32.477Z,17.36
2022-07-28T21:19:02.151Z,16.91
2022-07-28T21:21:30.388Z,16.65
2022-07-28T21:23:58.216Z,16.78
2022-07-28T21:26:26.515Z,16.98
2022-07-28T21:32:02.153Z,17.19
2022-07-28T21:34:34.451Z,17.25
2022-07-28T21:37:03.436Z,17.28
2022-07-28T21:39:31.695Z,17.28
2022-07-28T21:42:00.182Z,17.32
2022-07-28T21:44:27.937Z,17.35
2022-07-28T21:46:55.674Z,17.37
2022-07-28T21:49:23.713Z,17.37
2022-07-28T21:51:51.741Z,17.36
2022-07-28T21:54:20.559Z,17.35
2022-07-28T21:56:48.675Z,17.34
2022-07-28T21:59:16.571Z,17.34
2022-07-28T22:01:45.100Z,17.32
2022-07-28T22:04:13.523Z,17.29
2022-07-28T22:06:46.064Z,17.27
2022-07-28T22:09:15.176Z,17.23
2022-07-28T22:11:43.181Z,17.21
2022-07-28T22:14:11.133Z,17.19
2022-07-28T22:16:39.389Z,17.17
2022-07-28T22:19:07.267Z,17.14
2022-07-28T22:21:35.222Z,17.12
2022-07-28T22:24:03.118Z,17.05
2022-07-28T22:26:30.970Z,16.96
2022-07-28T22:28:58.791Z,16.90
2022-07-28T22:31:26.967Z,16.89
2022-07-28T22:33:54.768Z,16.87
2022-07-28T22:36:22.858Z,16.85
2022-07-28T22:38:50.870Z,16.83
2022-07-28T22:41:18.732Z,16.76
2022-07-28T22:43:46.605Z,16.73
2022-07-28T22:46:14.562Z,16.72
2022-07-28T22:48:42.671Z,16.70
2022-07-28T22:51:14.891Z,16.69
2022-07-28T22:53:42.747Z,16.67
2022-07-28T22:56:11.336Z,16.66
2022-07-28T22:58:40.184Z,16.65
2022-07-28T23:01:08.834Z,16.59
2022-07-28T23:03:37.093Z,16.53
2022-07-28T23:06:06.159Z,16.48
2022-07-28T23:08:34.519Z,16.44
2022-07-28T23:11:02.379Z,16.41
2022-07-28T23:13:30.198Z,16.38
2022-07-28T23:15:58.453Z,16.37
2022-07-28T23:18:26.476Z,16.34
2022-07-28T23:20:54.331Z,16.32
2022-07-28T23:23:22.286Z,16.30
2022-07-28T23:25:50.170Z,16.29
2022-07-28T23:28:18.027Z,16.27
2022-07-28T23:30:47.443Z,16.24
2022-07-28T23:33:56.130Z,16.20
2022-07-28T23:36:05.728Z,16.15
2022-07-28T23:38:33.675Z,16.12
2022-07-28T23:41:01.469Z,16.10
2022-07-28T23:43:30.614Z,16.10
2022-07-28T23:45:58.393Z,16.08
2022-07-28T23:48:26.399Z,16.01
2022-07-28T23:50:54.210Z,15.96
2022-07-28T23:53:22.051Z,15.91
2022-07-28T23:55:50.007Z,15.87
2022-07-28T23:58:17.840Z,15.86
